ADDS METAR Data INFO
IDs: Format: Raw Decoded Include TAF

Data at: 0429 UTC 21 Nov 2017

KSNK 210415Z AUTO 18009KT 10SM CLR 12/00 A2990 RMK AO2 T01190000
KSNK 210355Z AUTO 17010KT 10SM CLR 12/00 A2990 RMK AO2 T01200000
KSNK 210335Z AUTO 17009KT 10SM CLR 12/00 A2990 RMK AO2 T01190000
KSNK 210315Z AUTO 16010KT 10SM CLR 12/00 A2990 RMK AO2 T01221001
KSNK 210255Z AUTO 16009KT 10SM CLR 12/00 A2990 RMK AO2 T01241004
KSNK 210235Z AUTO 17009KT 10SM CLR 13/M01 A2990 RMK AO2 T01301007
KSNK 210215Z AUTO 17008KT 10SM CLR 13/M01 A2989 RMK AO2 T01341006
KSNK 210155Z AUTO 19008KT 10SM CLR 14/00 A2989 RMK AO2 T01351005
KSNK 210135Z AUTO 19008KT 10SM CLR 14/M01 A2990 RMK AO2 T01371006
KSNK 210115Z AUTO 18007KT 10SM CLR 14/M01 A2989 RMK AO2 T01391009
KSNK 210055Z AUTO 18009KT 10SM CLR 14/M01 A2989 RMK AO2 T01371011
KSNK 210035Z AUTO 19007KT 10SM CLR 14/M01 A2989 RMK AO2 T01431012
KSNK 210015Z AUTO 20006KT 10SM CLR 16/M01 A2990 RMK AO2 T01551013
KSNK 202355Z AUTO 20007KT 10SM CLR 17/M01 A2990 RMK AO2 T01681013
KSNK 202335Z AUTO 20008KT 10SM CLR 18/M01 A2990 RMK AO2 T01801012
KSNK 202315Z AUTO 21012KT 10SM CLR 19/M01 A2991 RMK AO2 T01911013
KSNK 202255Z AUTO 21012G17KT 10SM CLR 20/M01 A2991 RMK AO2 T01951011
KSNK 202235Z AUTO 20013KT 10SM CLR 20/M01 A2991 RMK AO2 T01971009
KSNK 202215Z AUTO 20013KT 10SM CLR 20/M01 A2991 RMK AO2 T01971007
KSNK 202200Z AUTO 21014G17KT 10SM CLR 20/M01 A2991 RMK AO2 T01971006
KSNK 202135Z AUTO 20015KT 10SM CLR 19/M01 A2991 RMK AO2 T01931006
KSNK 202115Z AUTO 21014G19KT 10SM CLR 19/00 A2992 RMK AO2 T01911005
KSNK 202055Z AUTO 22015G22KT 10SM CLR 19/M01 A2992 RMK AO2 T01901006
KSNK 202035Z AUTO 21016KT 10SM CLR 19/M01 A2994 RMK AO2 T01881006
KSNK 202015Z AUTO 23016G21KT 10SM CLR 19/M01 A2995 RMK AO2 T01871006
KSNK 201955Z AUTO 22017G20KT 10SM CLR 18/M01 A2995 RMK AO2 T01811007
KSNK 201935Z AUTO 22014G21KT 10SM CLR 18/M01 A2996 RMK AO2 T01761009
KSNK 201915Z AUTO 22016G21KT 10SM CLR 17/M01 A2997 RMK AO2 T01731010
KSNK 201855Z AUTO 22015G20KT 10SM CLR 17/M01 A2999 RMK AO2 T01661011
KSNK 201835Z AUTO 20011KT 10SM CLR 16/M01 A3001 RMK AO2 T01561013
KSNK 201815Z AUTO 19013G18KT 10SM CLR 15/M02 A3002 RMK AO2 T01471016
KSNK 201755Z AUTO 19013G19KT 10SM CLR 14/M02 A3003 RMK AO2 T01381016
KSNK 201735Z AUTO 19011G18KT 10SM CLR 13/M02 A3005 RMK AO2 T01261017
KSNK 201715Z AUTO 20013KT 10SM CLR 12/M02 A3007 RMK AO2 T01161019
KSNK 201655Z AUTO 18014KT 10SM CLR 11/M02 A3008 RMK AO2 T01091021
KSNK 201635Z AUTO 19012G17KT 10SM CLR 10/M02 A3009 RMK AO2 T01011025
KSNK 201615Z AUTO 19012KT 10SM CLR 09/M03 A3009 RMK AO2 LTG DSNT SE T00941028
KSNK 201555Z AUTO 19012KT 10SM CLR 08/M03 A3009 RMK AO2 T00831028
KSNK 201535Z AUTO 19010KT 10SM CLR 07/M03 A3010 RMK AO2 T00711026
KSNK 201515Z AUTO 18010KT 10SM CLR 06/M03 A3010 RMK AO2 T00611027
KSNK 201455Z AUTO 18009KT 10SM CLR 05/M02 A3011 RMK AO2 T00491025
KSNK 201435Z AUTO 18007KT 10SM CLR 03/M03 A3011 RMK AO2 T00331026
KSNK 201415Z AUTO 18006KT 10SM CLR 02/M03 A3012 RMK AO2 T00201032
KSNK 201355Z AUTO 18007KT 10SM CLR 01/M04 A3011 RMK AO2 T00081036
KSNK 201335Z AUTO 18006KT 10SM CLR 00/M04 A3011 RMK AO2 T10031040
KSNK 201315Z AUTO 19005KT 10SM CLR M01/M04 A3011 RMK AO2 T10061042
KSNK 201255Z AUTO 20004KT 10SM CLR 00/M04 A3010 RMK AO2 T00011041
KSNK 201235Z AUTO 18006KT 10SM CLR 00/M04 A3010 RMK AO2 T00031040
KSNK 201215Z AUTO 18005KT 10SM CLR 00/M04 A3010 RMK AO2 T00031038
KSNK 201155Z AUTO 17005KT 10SM CLR 00/M04 A3009 RMK AO2 T00031037
KSNK 201135Z AUTO 00000KT 10SM CLR 00/M04 A3011 RMK AO2 T00041037
KSNK 201115Z AUTO 17006KT 10SM CLR 01/M04 A3010 RMK AO2 T00061037
KSNK 201055Z AUTO 17005KT 10SM CLR 01/M04 A3010 RMK AO2 T00071038
KSNK 201035Z AUTO 18003KT 10SM CLR 01/M04 A3011 RMK AO2 T00091038
KSNK 201020Z AUTO 18005KT 10SM CLR 01/M04 A3011 RMK AO2 T00101038
KSNK 200955Z AUTO 16006KT 10SM CLR 01/M04 A3012 RMK AO2 T00141039
KSNK 200935Z AUTO 17004KT 10SM CLR 02/M04 A3012 RMK AO2 T00171040
KSNK 200915Z AUTO 18004KT 10SM CLR 02/M04 A3012 RMK AO2 T00181040
KSNK 200855Z AUTO 18005KT 10SM CLR 01/M04 A3013 RMK AO2 T00121040
KSNK 200835Z AUTO 20003KT 10SM CLR 01/M04 A3014 RMK AO2 T00111040
KSNK 200815Z AUTO 19004KT 10SM CLR 01/M04 A3015 RMK AO2 T00121040
KSNK 200755Z AUTO 19004KT 10SM CLR 01/M04 A3015 RMK AO2 T00081041
KSNK 200735Z AUTO 20006KT 10SM CLR 01/M04 A3015 RMK AO2 T00101041
KSNK 200715Z AUTO 20006KT 10SM CLR 01/M04 A3016 RMK AO2 T00131042
KSNK 200655Z AUTO 21004KT 10SM CLR 02/M04 A3017 RMK AO2 T00231041
KSNK 200635Z AUTO 20004KT 10SM CLR 03/M04 A3017 RMK AO2 T00251042
KSNK 200615Z AUTO 19005KT 10SM CLR 03/M04 A3018 RMK AO2 T00251045
KSNK 200555Z AUTO 20005KT 10SM CLR 03/M05 A3018 RMK AO2 T00251046
KSNK 200535Z AUTO 20005KT 10SM CLR 03/M05 A3019 RMK AO2 T00251048
KSNK 200515Z AUTO 19006KT 10SM CLR 03/M05 A3018 RMK AO2 T00321048
KSNK 200455Z AUTO 18005KT 10SM CLR 04/M05 A3019 RMK AO2 T00431048
KSNK 200435Z AUTO 17007KT 10SM CLR 05/M05 A3019 RMK AO2 T00481048
KSNK 200415Z AUTO 16007KT 10SM CLR 05/M05 A3019 RMK AO2 T00521048
KSNK 200355Z AUTO 16009KT 10SM CLR 06/M05 A3019 RMK AO2 T00551049
KSNK 200335Z AUTO 15009KT 10SM CLR 06/M05 A3019 RMK AO2 T00591050
KSNK 200315Z AUTO 16008KT 10SM CLR 06/M05 A3019 RMK AO2 T00621052
KSNK 200255Z AUTO 16008KT 10SM CLR 06/M05 A3019 RMK AO2 T00631054
KSNK 200235Z AUTO 16008KT 10SM CLR 07/M06 A3019 RMK AO2 T00691058
KSNK 200215Z AUTO 17008KT 10SM CLR 07/M06 A3019 RMK AO2 T00731060
KSNK 200155Z AUTO 17007KT 10SM CLR 08/M06 A3020 RMK AO2 T00761060
KSNK 200135Z AUTO 17007KT 10SM CLR 08/M06 A3020 RMK AO2 T00781060
KSNK 200115Z AUTO 17007KT 10SM CLR 08/M06 A3020 RMK AO2 T00821062
KSNK 200055Z AUTO 17008KT 10SM CLR 08/M06 A3020 RMK AO2 T00821061
KSNK 200035Z AUTO 16008KT 10SM CLR 09/M06 A3020 RMK AO2 T00921065
KSNK 200015Z AUTO 16009KT 10SM CLR 10/M07 A3020 RMK AO2 T00971067
KSNK 192355Z AUTO 16007KT 10SM CLR 11/M06 A3020 RMK AO2 T01101065
KSNK 192335Z AUTO 17005KT 10SM CLR 12/M06 A3021 RMK AO2 T01221065
KSNK 192315Z AUTO 18004KT 10SM CLR 13/M07 A3021 RMK AO2 T01331070
KSNK 192255Z AUTO 21004KT 10SM CLR 14/M07 A3022 RMK AO2 T01391070
KSNK 192235Z AUTO 20007KT 10SM CLR 14/M08 A3023 RMK AO2 T01411076
KSNK 192215Z AUTO 19007KT 10SM CLR 14/M07 A3022 RMK AO2 T01431072
KSNK 192155Z AUTO 17006KT 10SM CLR 14/M07 A3023 RMK AO2 T01431071
KSNK 192135Z AUTO 19004KT 10SM CLR 14/M08 A3023 RMK AO2 T01431082
KSNK 192115Z AUTO 20009KT 10SM CLR 14/M09 A3024 RMK AO2 T01411088
KSNK 192055Z AUTO 17004KT 10SM CLR 14/M08 A3025 RMK AO2 T01411079
KSNK 192035Z AUTO 19006KT 10SM CLR 14/M08 A3026 RMK AO2 T01371079
KSNK 192015Z AUTO 19006KT 10SM CLR 13/M08 A3027 RMK AO2 T01331077
KSNK 191955Z AUTO 25006KT 10SM CLR 13/M08 A3028 RMK AO2 T01281076
KSNK 191935Z AUTO 15005KT 10SM CLR 13/M08 A3030 RMK AO2 T01301079
KSNK 191915Z AUTO 16006KT 10SM CLR 13/M08 A3031 RMK AO2 T01271079
KSNK 191855Z AUTO 20006KT 10SM CLR 12/M08 A3032 RMK AO2 T01241079
KSNK 191835Z AUTO 19003KT 10SM CLR 12/M07 A3033 RMK AO2 T01211071
KSNK 191815Z AUTO 22005KT 10SM CLR 12/M07 A3034 RMK AO2 T01191067
KSNK 191755Z AUTO 19008KT 10SM CLR 12/M06 A3036 RMK AO2 T01151056
KSNK 191735Z AUTO 21008KT 10SM CLR 11/M04 A3037 RMK AO2 T01101044
KSNK 191715Z AUTO 20007KT 170V230 10SM CLR 10/M04 A3038 RMK AO2 T01041037
KSNK 191655Z AUTO 22006KT 10SM CLR 10/M03 A3039 RMK AO2 T00971033
KSNK 191635Z AUTO 22006KT 10SM CLR 09/M04 A3040 RMK AO2 T00861039